Aviation Digital Data Service (ADDS)

Output produced by METARs form (1117 UTC 25 May 2015)
found at http://aviationweather.gov/adds/metars/
 
KACK 250902Z 2509/2606 23012KT P6SM SCT100 BKN250 
     FM252000 21014G20KT P6SM SCT100 BKN250 
     FM260100 21014KT P6SM SCT100 BKN250